sensor_id;sensor_type;location;lat;lon;timestamp;temperature;humidity
20546;DHT22;10431;50.228;9.112;2023-07-31T00:00:56;22.10;97.50
20546;DHT22;10431;50.228;9.112;2023-07-31T00:03:23;22.10;97.50
20546;DHT22;10431;50.228;9.112;2023-07-31T00:05:49;22.10;97.60
20546;DHT22;10431;50.228;9.112;2023-07-31T00:08:15;22.10;97.60
20546;DHT22;10431;50.228;9.112;2023-07-31T00:10:41;22.10;97.70
20546;DHT22;10431;50.228;9.112;2023-07-31T00:13:07;22.10;97.70
20546;DHT22;10431;50.228;9.112;2023-07-31T00:15:33;22.10;97.70
20546;DHT22;10431;50.228;9.112;2023-07-31T00:18:00;22.10;97.70
20546;DHT22;10431;50.228;9.112;2023-07-31T00:20:27;22.10;97.80
20546;DHT22;10431;50.228;9.112;2023-07-31T00:22:53;22.10;97.80
20546;DHT22;10431;50.228;9.112;2023-07-31T00:25:19;22.10;97.80
20546;DHT22;10431;50.228;9.112;2023-07-31T00:27:45;22.10;97.80
20546;DHT22;10431;50.228;9.112;2023-07-31T00:30:12;22.10;97.90
20546;DHT22;10431;50.228;9.112;2023-07-31T00:32:38;22.10;97.90
20546;DHT22;10431;50.228;9.112;2023-07-31T00:35:04;22.10;97.90
20546;DHT22;10431;50.228;9.112;2023-07-31T00:37:31;22.10;97.90
20546;DHT22;10431;50.228;9.112;2023-07-31T00:39:57;22.10;98.00
20546;DHT22;10431;50.228;9.112;2023-07-31T00:42:25;22.10;97.90
20546;DHT22;10431;50.228;9.112;2023-07-31T00:44:51;22.10;98.00
20546;DHT22;10431;50.228;9.112;2023-07-31T00:47:17;22.10;98.00
20546;DHT22;10431;50.228;9.112;2023-07-31T00:49:44;22.10;98.10
20546;DHT22;10431;50.228;9.112;2023-07-31T00:52:10;22.10;98.10
20546;DHT22;10431;50.228;9.112;2023-07-31T00:54:36;22.10;98.10
20546;DHT22;10431;50.228;9.112;2023-07-31T00:57:03;22.10;98.20
20546;DHT22;10431;50.228;9.112;2023-07-31T00:59:29;22.10;98.20
20546;DHT22;10431;50.228;9.112;2023-07-31T01:01:55;22.10;98.20
20546;DHT22;10431;50.228;9.112;2023-07-31T01:04:22;22.10;98.20
20546;DHT22;10431;50.228;9.112;2023-07-31T01:07:22;22.10;98.20
20546;DHT22;10431;50.228;9.112;2023-07-31T01:12:33;22.10;98.30
20546;DHT22;10431;50.228;9.112;2023-07-31T01:15:04;22.10;98.30
20546;DHT22;10431;50.228;9.112;2023-07-31T01:17:31;22.10;98.40
20546;DHT22;10431;50.228;9.112;2023-07-31T01:20:02;22.10;98.40
20546;DHT22;10431;50.228;9.112;2023-07-31T01:28:11;22.10;98.50
20546;DHT22;10431;50.228;9.112;2023-07-31T01:30:42;22.10;98.50
20546;DHT22;10431;50.228;9.112;2023-07-31T01:33:09;22.10;98.50
20546;DHT22;10431;50.228;9.112;2023-07-31T01:35:37;22.10;98.60
20546;DHT22;10431;50.228;9.112;2023-07-31T01:38:05;22.10;98.60
20546;DHT22;10431;50.228;9.112;2023-07-31T01:40:31;22.10;98.60
20546;DHT22;10431;50.228;9.112;2023-07-31T01:42:57;22.10;98.60
20546;DHT22;10431;50.228;9.112;2023-07-31T01:45:23;22.10;98.70
20546;DHT22;10431;50.228;9.112;2023-07-31T01:47:50;22.10;98.70
20546;DHT22;10431;50.228;9.112;2023-07-31T01:50:16;22.10;98.70
20546;DHT22;10431;50.228;9.112;2023-07-31T01:52:42;22.10;98.70
20546;DHT22;10431;50.228;9.112;2023-07-31T01:55:09;22.10;98.80
20546;DHT22;10431;50.228;9.112;2023-07-31T01:57:36;22.10;98.80
20546;DHT22;10431;50.228;9.112;2023-07-31T02:00:03;22.10;98.80
20546;DHT22;10431;50.228;9.112;2023-07-31T02:02:38;22.10;98.90
20546;DHT22;10431;50.228;9.112;2023-07-31T02:05:04;22.10;98.90
20546;DHT22;10431;50.228;9.112;2023-07-31T02:07:31;22.10;98.90
20546;DHT22;10431;50.228;9.112;2023-07-31T02:09:57;22.10;98.90
20546;DHT22;10431;50.228;9.112;2023-07-31T02:12:23;22.10;98.90
20546;DHT22;10431;50.228;9.112;2023-07-31T02:14:49;22.10;99.00
20546;DHT22;10431;50.228;9.112;2023-07-31T02:17:16;22.10;99.00
20546;DHT22;10431;50.228;9.112;2023-07-31T02:19:42;22.10;99.30
20546;DHT22;10431;50.228;9.112;2023-07-31T02:22:08;22.10;99.00
20546;DHT22;10431;50.228;9.112;2023-07-31T02:24:34;22.10;99.10
20546;DHT22;10431;50.228;9.112;2023-07-31T02:27:01;22.10;99.10
20546;DHT22;10431;50.228;9.112;2023-07-31T02:29:27;22.10;99.10
20546;DHT22;10431;50.228;9.112;2023-07-31T02:31:53;22.00;99.20
20546;DHT22;10431;50.228;9.112;2023-07-31T02:34:19;22.10;99.20
20546;DHT22;10431;50.228;9.112;2023-07-31T02:36:46;22.00;99.20
20546;DHT22;10431;50.228;9.112;2023-07-31T02:39:12;22.10;99.30
20546;DHT22;10431;50.228;9.112;2023-07-31T02:41:38;22.00;99.20
20546;DHT22;10431;50.228;9.112;2023-07-31T02:44:04;22.10;99.30
20546;DHT22;10431;50.228;9.112;2023-07-31T02:46:31;22.10;99.30
20546;DHT22;10431;50.228;9.112;2023-07-31T02:48:57;22.00;99.30
20546;DHT22;10431;50.228;9.112;2023-07-31T02:51:23;22.00;99.40
20546;DHT22;10431;50.228;9.112;2023-07-31T02:53:50;22.00;99.40
20546;DHT22;10431;50.228;9.112;2023-07-31T02:56:16;22.00;99.40
20546;DHT22;10431;50.228;9.112;2023-07-31T02:58:42;22.00;99.50
20546;DHT22;10431;50.228;9.112;2023-07-31T03:01:08;22.00;99.40
20546;DHT22;10431;50.228;9.112;2023-07-31T03:03:35;22.00;99.50
20546;DHT22;10431;50.228;9.112;2023-07-31T03:06:01;22.00;99.50
20546;DHT22;10431;50.228;9.112;2023-07-31T03:08:27;22.00;99.60
20546;DHT22;10431;50.228;9.112;2023-07-31T03:10:53;22.00;99.60
20546;DHT22;10431;50.228;9.112;2023-07-31T03:13:19;22.00;99.90
20546;DHT22;10431;50.228;9.112;2023-07-31T03:15:46;22.00;99.60
20546;DHT22;10431;50.228;9.112;2023-07-31T03:18:12;22.00;99.60
20546;DHT22;10431;50.228;9.112;2023-07-31T03:20:42;22.00;99.70
20546;DHT22;10431;50.228;9.112;2023-07-31T03:23:09;22.00;99.60
20546;DHT22;10431;50.228;9.112;2023-07-31T03:25:36;22.00;99.70
20546;DHT22;10431;50.228;9.112;2023-07-31T03:28:02;22.00;99.70
20546;DHT22;10431;50.228;9.112;2023-07-31T03:30:29;22.00;99.70
20546;DHT22;10431;50.228;9.112;2023-07-31T03:32:56;22.00;99.70
20546;DHT22;10431;50.228;9.112;2023-07-31T03:35:22;22.00;99.80
20546;DHT22;10431;50.228;9.112;2023-07-31T03:37:48;22.00;99.70
20546;DHT22;10431;50.228;9.112;2023-07-31T03:40:14;22.00;99.80
20546;DHT22;10431;50.228;9.112;2023-07-31T03:42:40;22.10;99.80
20546;DHT22;10431;50.228;9.112;2023-07-31T03:45:07;22.00;99.80
20546;DHT22;10431;50.228;9.112;2023-07-31T03:47:34;22.00;99.80
20546;DHT22;10431;50.228;9.112;2023-07-31T03:50:00;22.00;99.80
20546;DHT22;10431;50.228;9.112;2023-07-31T03:52:26;22.00;99.90
20546;DHT22;10431;50.228;9.112;2023-07-31T03:54:52;22.00;99.90
20546;DHT22;10431;50.228;9.112;2023-07-31T03:57:18;22.00;99.90
20546;DHT22;10431;50.228;9.112;2023-07-31T03:59:45;22.00;99.90
20546;DHT22;10431;50.228;9.112;2023-07-31T04:02:11;22.00;99.90
20546;DHT22;10431;50.228;9.112;2023-07-31T04:04:37;22.00;99.90
20546;DHT22;10431;50.228;9.112;2023-07-31T04:07:03;22.00;99.90
20546;DHT22;10431;50.228;9.112;2023-07-31T04:09:29;22.00;99.90
20546;DHT22;10431;50.228;9.112;2023-07-31T04:11:56;22.00;99.90
20546;DHT22;10431;50.228;9.112;2023-07-31T04:14:22;22.00;99.90
20546;DHT22;10431;50.228;9.112;2023-07-31T04:16:49;22.00;99.90
20546;DHT22;10431;50.228;9.112;2023-07-31T04:19:16;22.00;99.90
20546;DHT22;10431;50.228;9.112;2023-07-31T04:21:42;22.00;99.90
20546;DHT22;10431;50.228;9.112;2023-07-31T04:24:09;22.00;99.90
20546;DHT22;10431;50.228;9.112;2023-07-31T04:26:35;22.00;99.90
20546;DHT22;10431;50.228;9.112;2023-07-31T04:29:01;22.00;99.90
20546;DHT22;10431;50.228;9.112;2023-07-31T04:31:28;22.00;99.90
20546;DHT22;10431;50.228;9.112;2023-07-31T04:33:54;22.00;99.90
20546;DHT22;10431;50.228;9.112;2023-07-31T04:36:20;22.00;99.90
20546;DHT22;10431;50.228;9.112;2023-07-31T04:38:46;22.00;99.90
20546;DHT22;10431;50.228;9.112;2023-07-31T04:41:12;22.00;99.90
20546;DHT22;10431;50.228;9.112;2023-07-31T04:43:38;22.00;99.90
20546;DHT22;10431;50.228;9.112;2023-07-31T04:46:05;22.00;99.90
20546;DHT22;10431;50.228;9.112;2023-07-31T04:48:32;22.00;99.90
20546;DHT22;10431;50.228;9.112;2023-07-31T04:50:58;22.00;99.90
20546;DHT22;10431;50.228;9.112;2023-07-31T04:53:24;22.00;99.90
20546;DHT22;10431;50.228;9.112;2023-07-31T04:55:50;22.00;99.90
20546;DHT22;10431;50.228;9.112;2023-07-31T04:58:16;22.00;99.90
20546;DHT22;10431;50.228;9.112;2023-07-31T05:00:42;22.00;99.90
20546;DHT22;10431;50.228;9.112;2023-07-31T05:03:09;22.00;99.90
20546;DHT22;10431;50.228;9.112;2023-07-31T05:05:36;22.00;99.90
20546;DHT22;10431;50.228;9.112;2023-07-31T05:08:03;22.00;99.90
20546;DHT22;10431;50.228;9.112;2023-07-31T05:10:29;22.00;99.90
20546;DHT22;10431;50.228;9.112;2023-07-31T05:12:56;22.00;99.90
20546;DHT22;10431;50.228;9.112;2023-07-31T05:15:22;22.00;99.90
20546;DHT22;10431;50.228;9.112;2023-07-31T05:17:48;22.00;99.90
20546;DHT22;10431;50.228;9.112;2023-07-31T05:20:14;22.00;99.90
20546;DHT22;10431;50.228;9.112;2023-07-31T05:22:41;22.00;99.90
20546;DHT22;10431;50.228;9.112;2023-07-31T05:25:07;22.00;99.90
20546;DHT22;10431;50.228;9.112;2023-07-31T05:27:34;22.00;99.90
20546;DHT22;10431;50.228;9.112;2023-07-31T05:30:00;22.00;99.90
20546;DHT22;10431;50.228;9.112;2023-07-31T05:32:26;22.00;99.90
20546;DHT22;10431;50.228;9.112;2023-07-31T05:34:52;21.90;99.90
20546;DHT22;10431;50.228;9.112;2023-07-31T05:37:19;21.90;99.90
20546;DHT22;10431;50.228;9.112;2023-07-31T05:39:45;21.90;99.90
20546;DHT22;10431;50.228;9.112;2023-07-31T05:42:12;22.00;99.90
20546;DHT22;10431;50.228;9.112;2023-07-31T05:44:38;21.90;99.90
20546;DHT22;10431;50.228;9.112;2023-07-31T05:47:04;22.00;99.90
20546;DHT22;10431;50.228;9.112;2023-07-31T05:49:31;21.90;99.90
20546;DHT22;10431;50.228;9.112;2023-07-31T05:51:57;21.90;99.90
20546;DHT22;10431;50.228;9.112;2023-07-31T05:54:23;21.90;99.90
20546;DHT22;10431;50.228;9.112;2023-07-31T05:56:49;21.90;99.90
20546;DHT22;10431;50.228;9.112;2023-07-31T05:59:16;22.00;99.90
20546;DHT22;10431;50.228;9.112;2023-07-31T06:01:42;21.90;99.90
20546;DHT22;10431;50.228;9.112;2023-07-31T06:04:08;21.90;99.90
20546;DHT22;10431;50.228;9.112;2023-07-31T06:06:35;22.00;99.90
20546;DHT22;10431;50.228;9.112;2023-07-31T06:09:01;21.90;99.90
20546;DHT22;10431;50.228;9.112;2023-07-31T06:11:27;21.90;99.90
20546;DHT22;10431;50.228;9.112;2023-07-31T06:13:53;22.00;99.90
20546;DHT22;10431;50.228;9.112;2023-07-31T06:16:20;21.90;99.90
20546;DHT22;10431;50.228;9.112;2023-07-31T06:18:47;21.90;99.90
20546;DHT22;10431;50.228;9.112;2023-07-31T06:21:13;21.90;99.90
20546;DHT22;10431;50.228;9.112;2023-07-31T06:23:40;22.00;99.90
20546;DHT22;10431;50.228;9.112;2023-07-31T06:26:06;21.90;99.90
20546;DHT22;10431;50.228;9.112;2023-07-31T06:28:32;21.90;99.90
20546;DHT22;10431;50.228;9.112;2023-07-31T06:30:59;21.90;99.90
20546;DHT22;10431;50.228;9.112;2023-07-31T06:33:25;21.90;99.90
20546;DHT22;10431;50.228;9.112;2023-07-31T06:35:51;21.90;99.90
20546;DHT22;10431;50.228;9.112;2023-07-31T06:38:24;21.90;99.90
20546;DHT22;10431;50.228;9.112;2023-07-31T06:40:50;21.90;99.90
20546;DHT22;10431;50.228;9.112;2023-07-31T06:43:17;21.90;99.80
20546;DHT22;10431;50.228;9.112;2023-07-31T06:45:43;21.90;99.80
20546;DHT22;10431;50.228;9.112;2023-07-31T06:48:09;21.90;99.80
20546;DHT22;10431;50.228;9.112;2023-07-31T06:50:36;21.90;99.80
20546;DHT22;10431;50.228;9.112;2023-07-31T06:53:03;21.90;99.80
20546;DHT22;10431;50.228;9.112;2023-07-31T06:55:29;21.90;99.70
20546;DHT22;10431;50.228;9.112;2023-07-31T06:57:56;21.90;99.70
20546;DHT22;10431;50.228;9.112;2023-07-31T07:00:22;21.90;99.70
20546;DHT22;10431;50.228;9.112;2023-07-31T07:02:49;21.90;99.70
20546;DHT22;10431;50.228;9.112;2023-07-31T07:05:17;21.90;99.70
20546;DHT22;10431;50.228;9.112;2023-07-31T07:07:43;21.90;99.70
20546;DHT22;10431;50.228;9.112;2023-07-31T07:10:10;21.90;99.60
20546;DHT22;10431;50.228;9.112;2023-07-31T07:12:36;21.90;99.60
20546;DHT22;10431;50.228;9.112;2023-07-31T07:15:03;21.90;99.60
20546;DHT22;10431;50.228;9.112;2023-07-31T07:17:30;21.90;99.60
20546;DHT22;10431;50.228;9.112;2023-07-31T07:19:57;21.90;99.60
20546;DHT22;10431;50.228;9.112;2023-07-31T07:22:24;21.90;99.60
20546;DHT22;10431;50.228;9.112;2023-07-31T07:24:51;21.90;99.60
20546;DHT22;10431;50.228;9.112;2023-07-31T07:27:18;21.90;99.60
20546;DHT22;10431;50.228;9.112;2023-07-31T07:29:45;21.90;99.60
20546;DHT22;10431;50.228;9.112;2023-07-31T07:32:11;21.90;99.50
20546;DHT22;10431;50.228;9.112;2023-07-31T07:34:37;21.90;99.50
20546;DHT22;10431;50.228;9.112;2023-07-31T07:37:04;21.90;99.50
20546;DHT22;10431;50.228;9.112;2023-07-31T07:39:30;21.90;99.50
20546;DHT22;10431;50.228;9.112;2023-07-31T07:41:56;21.90;99.50
20546;DHT22;10431;50.228;9.112;2023-07-31T07:44:23;21.90;99.50
20546;DHT22;10431;50.228;9.112;2023-07-31T07:46:49;21.90;99.50
20546;DHT22;10431;50.228;9.112;2023-07-31T07:49:15;21.90;99.50
20546;DHT22;10431;50.228;9.112;2023-07-31T07:51:41;21.90;99.50
20546;DHT22;10431;50.228;9.112;2023-07-31T07:54:07;21.90;99.50
20546;DHT22;10431;50.228;9.112;2023-07-31T07:56:33;21.90;99.50
20546;DHT22;10431;50.228;9.112;2023-07-31T07:59:02;21.90;99.40
20546;DHT22;10431;50.228;9.112;2023-07-31T08:01:28;21.90;99.50
20546;DHT22;10431;50.228;9.112;2023-07-31T08:03:54;21.90;99.50
20546;DHT22;10431;50.228;9.112;2023-07-31T08:06:20;21.80;99.00
20546;DHT22;10431;50.228;9.112;2023-07-31T08:08:47;21.70;99.00
20546;DHT22;10431;50.228;9.112;2023-07-31T08:11:13;21.60;98.50
20546;DHT22;10431;50.228;9.112;2023-07-31T08:13:39;21.60;98.60
20546;DHT22;10431;50.228;9.112;2023-07-31T08:16:05;21.60;98.70
20546;DHT22;10431;50.228;9.112;2023-07-31T08:18:32;21.60;98.90
20546;DHT22;10431;50.228;9.112;2023-07-31T08:20:58;21.50;99.40
20546;DHT22;10431;50.228;9.112;2023-07-31T08:23:25;21.50;98.90
20546;DHT22;10431;50.228;9.112;2023-07-31T08:25:51;21.50;98.90
20546;DHT22;10431;50.228;9.112;2023-07-31T08:28:17;21.60;99.10
20546;DHT22;10431;50.228;9.112;2023-07-31T08:30:43;21.50;99.00
20546;DHT22;10431;50.228;9.112;2023-07-31T08:33:09;21.60;99.00
20546;DHT22;10431;50.228;9.112;2023-07-31T08:35:36;21.60;99.10
20546;DHT22;10431;50.228;9.112;2023-07-31T08:38:02;21.60;98.70
20546;DHT22;10431;50.228;9.112;2023-07-31T08:40:28;21.60;98.80
20546;DHT22;10431;50.228;9.112;2023-07-31T08:42:55;21.70;98.70
20546;DHT22;10431;50.228;9.112;2023-07-31T08:45:28;21.80;98.60
20546;DHT22;10431;50.228;9.112;2023-07-31T08:47:56;21.80;98.50
20546;DHT22;10431;50.228;9.112;2023-07-31T08:50:23;21.90;98.40
20546;DHT22;10431;50.228;9.112;2023-07-31T08:52:50;21.90;98.30
20546;DHT22;10431;50.228;9.112;2023-07-31T08:55:18;21.90;98.30
20546;DHT22;10431;50.228;9.112;2023-07-31T08:57:51;22.00;98.20
20546;DHT22;10431;50.228;9.112;2023-07-31T09:00:18;22.00;98.20
20546;DHT22;10431;50.228;9.112;2023-07-31T09:02:56;22.00;98.30
20546;DHT22;10431;50.228;9.112;2023-07-31T09:05:24;22.00;98.30
20546;DHT22;10431;50.228;9.112;2023-07-31T09:07:52;22.00;98.30
20546;DHT22;10431;50.228;9.112;2023-07-31T09:10:19;22.10;98.30
20546;DHT22;10431;50.228;9.112;2023-07-31T09:12:45;22.00;98.30
20546;DHT22;10431;50.228;9.112;2023-07-31T09:15:12;22.00;98.30
20546;DHT22;10431;50.228;9.112;2023-07-31T09:17:38;22.00;98.60
20546;DHT22;10431;50.228;9.112;2023-07-31T09:20:20;22.00;98.40
20546;DHT22;10431;50.228;9.112;2023-07-31T09:22:48;22.10;98.40
20546;DHT22;10431;50.228;9.112;2023-07-31T09:25:18;22.00;98.30
20546;DHT22;10431;50.228;9.112;2023-07-31T09:27:49;22.00;98.30
20546;DHT22;10431;50.228;9.112;2023-07-31T09:30:17;22.00;98.20
20546;DHT22;10431;50.228;9.112;2023-07-31T09:32:46;22.00;98.40
20546;DHT22;10431;50.228;9.112;2023-07-31T09:35:20;22.00;98.50
20546;DHT22;10431;50.228;9.112;2023-07-31T09:37:51;22.10;98.60
20546;DHT22;10431;50.228;9.112;2023-07-31T09:40:35;22.10;98.70
20546;DHT22;10431;50.228;9.112;2023-07-31T09:43:03;22.00;98.70
20546;DHT22;10431;50.228;9.112;2023-07-31T09:45:33;22.00;98.70
20546;DHT22;10431;50.228;9.112;2023-07-31T09:47:59;22.00;98.70
20546;DHT22;10431;50.228;9.112;2023-07-31T09:50:25;22.00;98.70
20546;DHT22;10431;50.228;9.112;2023-07-31T09:52:52;22.00;98.80
20546;DHT22;10431;50.228;9.112;2023-07-31T09:55:19;22.00;98.80
20546;DHT22;10431;50.228;9.112;2023-07-31T09:57:48;22.00;98.80
20546;DHT22;10431;50.228;9.112;2023-07-31T10:00:17;22.00;98.80
20546;DHT22;10431;50.228;9.112;2023-07-31T10:02:46;22.00;98.80
20546;DHT22;10431;50.228;9.112;2023-07-31T10:05:15;22.00;98.70
20546;DHT22;10431;50.228;9.112;2023-07-31T10:07:53;21.90;98.70
20546;DHT22;10431;50.228;9.112;2023-07-31T10:10:21;22.00;98.70
20546;DHT22;10431;50.228;9.112;2023-07-31T10:12:49;22.00;98.80
20546;DHT22;10431;50.228;9.112;2023-07-31T10:15:16;22.00;98.90
20546;DHT22;10431;50.228;9.112;2023-07-31T10:17:43;22.00;98.90
20546;DHT22;10431;50.228;9.112;2023-07-31T10:20:10;22.00;98.90
20546;DHT22;10431;50.228;9.112;2023-07-31T10:22:36;22.00;99.10
20546;DHT22;10431;50.228;9.112;2023-07-31T10:25:03;22.00;99.20
20546;DHT22;10431;50.228;9.112;2023-07-31T10:27:30;22.00;99.30
20546;DHT22;10431;50.228;9.112;2023-07-31T10:29:57;22.00;99.40
20546;DHT22;10431;50.228;9.112;2023-07-31T10:32:25;22.00;99.40
20546;DHT22;10431;50.228;9.112;2023-07-31T10:34:51;22.00;99.50
20546;DHT22;10431;50.228;9.112;2023-07-31T10:37:39;22.00;99.60
20546;DHT22;10431;50.228;9.112;2023-07-31T10:40:13;22.00;99.60
20546;DHT22;10431;50.228;9.112;2023-07-31T10:45:14;22.00;99.70
20546;DHT22;10431;50.228;9.112;2023-07-31T10:47:44;22.00;99.70
20546;DHT22;10431;50.228;9.112;2023-07-31T10:50:20;22.00;99.80
20546;DHT22;10431;50.228;9.112;2023-07-31T10:52:56;22.00;99.80
20546;DHT22;10431;50.228;9.112;2023-07-31T10:55:27;22.00;99.80
20546;DHT22;10431;50.228;9.112;2023-07-31T10:57:54;22.00;99.80
20546;DHT22;10431;50.228;9.112;2023-07-31T11:00:29;22.00;99.80
20546;DHT22;10431;50.228;9.112;2023-07-31T11:03:05;22.00;99.90
20546;DHT22;10431;50.228;9.112;2023-07-31T11:06:01;22.00;99.90
20546;DHT22;10431;50.228;9.112;2023-07-31T11:08:29;22.00;99.90
20546;DHT22;10431;50.228;9.112;2023-07-31T11:13:32;22.00;99.90
20546;DHT22;10431;50.228;9.112;2023-07-31T11:16:00;22.00;99.90
20546;DHT22;10431;50.228;9.112;2023-07-31T11:18:27;22.00;99.90
20546;DHT22;10431;50.228;9.112;2023-07-31T11:20:53;22.00;99.90
20546;DHT22;10431;50.228;9.112;2023-07-31T11:23:21;22.00;99.90
20546;DHT22;10431;50.228;9.112;2023-07-31T11:25:47;22.00;99.90
20546;DHT22;10431;50.228;9.112;2023-07-31T11:28:14;22.00;99.90
20546;DHT22;10431;50.228;9.112;2023-07-31T11:30:42;22.00;99.90
20546;DHT22;10431;50.228;9.112;2023-07-31T11:33:10;22.00;99.90
20546;DHT22;10431;50.228;9.112;2023-07-31T11:35:46;22.00;99.90
20546;DHT22;10431;50.228;9.112;2023-07-31T11:38:23;22.00;99.90
20546;DHT22;10431;50.228;9.112;2023-07-31T11:40:50;22.00;99.90
20546;DHT22;10431;50.228;9.112;2023-07-31T11:43:18;21.90;99.90
20546;DHT22;10431;50.228;9.112;2023-07-31T11:46:02;21.90;99.90
20546;DHT22;10431;50.228;9.112;2023-07-31T11:48:32;22.00;99.90
20546;DHT22;10431;50.228;9.112;2023-07-31T11:51:04;21.90;99.90
20546;DHT22;10431;50.228;9.112;2023-07-31T11:53:38;22.00;99.90
20546;DHT22;10431;50.228;9.112;2023-07-31T11:56:07;21.90;99.90
20546;DHT22;10431;50.228;9.112;2023-07-31T11:58:35;21.90;99.90
20546;DHT22;10431;50.228;9.112;2023-07-31T12:01:02;22.00;99.90
20546;DHT22;10431;50.228;9.112;2023-07-31T12:03:29;21.90;99.90
20546;DHT22;10431;50.228;9.112;2023-07-31T12:05:56;21.90;99.90
20546;DHT22;10431;50.228;9.112;2023-07-31T12:08:23;21.90;99.90
20546;DHT22;10431;50.228;9.112;2023-07-31T12:10:54;22.00;99.90
20546;DHT22;10431;50.228;9.112;2023-07-31T12:13:25;22.00;99.90
20546;DHT22;10431;50.228;9.112;2023-07-31T12:16:00;21.90;99.90
20546;DHT22;10431;50.228;9.112;2023-07-31T12:18:28;22.00;99.90
20546;DHT22;10431;50.228;9.112;2023-07-31T12:20:57;22.00;99.90
20546;DHT22;10431;50.228;9.112;2023-07-31T12:23:26;22.00;99.90
20546;DHT22;10431;50.228;9.112;2023-07-31T12:28:27;22.00;99.90
20546;DHT22;10431;50.228;9.112;2023-07-31T12:30:58;22.00;99.90
20546;DHT22;10431;50.228;9.112;2023-07-31T12:33:31;22.00;99.90
20546;DHT22;10431;50.228;9.112;2023-07-31T12:35:57;22.00;99.90
20546;DHT22;10431;50.228;9.112;2023-07-31T12:38:23;22.00;99.90
20546;DHT22;10431;50.228;9.112;2023-07-31T12:40:50;22.00;99.90
20546;DHT22;10431;50.228;9.112;2023-07-31T12:43:16;22.00;99.90
20546;DHT22;10431;50.228;9.112;2023-07-31T12:45:42;22.00;99.90
20546;DHT22;10431;50.228;9.112;2023-07-31T12:48:08;22.00;99.90
20546;DHT22;10431;50.228;9.112;2023-07-31T12:50:34;22.00;99.90
20546;DHT22;10431;50.228;9.112;2023-07-31T12:53:02;22.00;99.90
20546;DHT22;10431;50.228;9.112;2023-07-31T12:55:32;22.00;99.90
20546;DHT22;10431;50.228;9.112;2023-07-31T12:58:00;22.00;99.90
20546;DHT22;10431;50.228;9.112;2023-07-31T13:00:27;22.00;99.90
20546;DHT22;10431;50.228;9.112;2023-07-31T13:02:53;22.00;99.90
20546;DHT22;10431;50.228;9.112;2023-07-31T13:05:19;22.00;99.90
20546;DHT22;10431;50.228;9.112;2023-07-31T13:07:49;22.00;99.90
20546;DHT22;10431;50.228;9.112;2023-07-31T13:10:15;22.00;99.90
20546;DHT22;10431;50.228;9.112;2023-07-31T13:12:41;22.00;99.90
20546;DHT22;10431;50.228;9.112;2023-07-31T13:15:08;22.00;99.90
20546;DHT22;10431;50.228;9.112;2023-07-31T13:17:35;22.00;99.90
20546;DHT22;10431;50.228;9.112;2023-07-31T13:20:02;22.00;99.90
20546;DHT22;10431;50.228;9.112;2023-07-31T13:22:29;22.00;99.90
20546;DHT22;10431;50.228;9.112;2023-07-31T13:24:55;22.00;99.90
20546;DHT22;10431;50.228;9.112;2023-07-31T13:27:22;22.00;99.90
20546;DHT22;10431;50.228;9.112;2023-07-31T13:29:48;22.00;99.90
20546;DHT22;10431;50.228;9.112;2023-07-31T13:32:16;22.00;99.90
20546;DHT22;10431;50.228;9.112;2023-07-31T13:34:43;22.00;99.90
20546;DHT22;10431;50.228;9.112;2023-07-31T13:37:09;22.00;99.90
20546;DHT22;10431;50.228;9.112;2023-07-31T13:39:35;22.00;99.90
20546;DHT22;10431;50.228;9.112;2023-07-31T13:42:03;22.00;99.90
20546;DHT22;10431;50.228;9.112;2023-07-31T13:44:29;22.00;99.90
20546;DHT22;10431;50.228;9.112;2023-07-31T13:46:55;22.00;99.90
20546;DHT22;10431;50.228;9.112;2023-07-31T13:49:22;22.00;99.90
20546;DHT22;10431;50.228;9.112;2023-07-31T13:51:48;22.00;99.90
20546;DHT22;10431;50.228;9.112;2023-07-31T13:54:14;22.00;99.90
20546;DHT22;10431;50.228;9.112;2023-07-31T13:56:42;22.00;99.90
20546;DHT22;10431;50.228;9.112;2023-07-31T13:59:08;22.00;99.90
20546;DHT22;10431;50.228;9.112;2023-07-31T14:01:35;22.00;99.90
20546;DHT22;10431;50.228;9.112;2023-07-31T14:04:01;22.00;99.90
20546;DHT22;10431;50.228;9.112;2023-07-31T14:06:27;22.00;99.90
20546;DHT22;10431;50.228;9.112;2023-07-31T14:08:53;22.00;99.90
20546;DHT22;10431;50.228;9.112;2023-07-31T14:11:22;22.00;99.90
20546;DHT22;10431;50.228;9.112;2023-07-31T14:13:50;22.00;99.90
20546;DHT22;10431;50.228;9.112;2023-07-31T14:16:16;22.00;99.90
20546;DHT22;10431;50.228;9.112;2023-07-31T14:18:43;22.00;99.90
20546;DHT22;10431;50.228;9.112;2023-07-31T14:21:12;22.00;99.90
20546;DHT22;10431;50.228;9.112;2023-07-31T14:23:38;22.00;99.90
20546;DHT22;10431;50.228;9.112;2023-07-31T14:26:04;22.00;99.90
20546;DHT22;10431;50.228;9.112;2023-07-31T14:28:30;22.00;99.90
20546;DHT22;10431;50.228;9.112;2023-07-31T14:30:57;22.00;99.90
20546;DHT22;10431;50.228;9.112;2023-07-31T14:33:23;22.00;99.90
20546;DHT22;10431;50.228;9.112;2023-07-31T14:35:49;22.00;99.90
20546;DHT22;10431;50.228;9.112;2023-07-31T14:38:17;22.00;99.90
20546;DHT22;10431;50.228;9.112;2023-07-31T14:40:43;22.00;99.90
20546;DHT22;10431;50.228;9.112;2023-07-31T14:43:09;22.00;99.90
20546;DHT22;10431;50.228;9.112;2023-07-31T14:45:35;22.00;99.90
20546;DHT22;10431;50.228;9.112;2023-07-31T14:48:02;22.00;99.90
20546;DHT22;10431;50.228;9.112;2023-07-31T14:50:28;22.00;99.90
20546;DHT22;10431;50.228;9.112;2023-07-31T14:52:55;22.00;99.90
20546;DHT22;10431;50.228;9.112;2023-07-31T14:55:21;22.00;99.90
20546;DHT22;10431;50.228;9.112;2023-07-31T14:57:47;22.00;99.90
20546;DHT22;10431;50.228;9.112;2023-07-31T15:00:14;22.00;99.90
20546;DHT22;10431;50.228;9.112;2023-07-31T15:02:41;22.00;99.90
20546;DHT22;10431;50.228;9.112;2023-07-31T15:05:07;22.00;99.90
20546;DHT22;10431;50.228;9.112;2023-07-31T15:07:34;22.00;99.90
20546;DHT22;10431;50.228;9.112;2023-07-31T15:10:03;22.00;99.90
20546;DHT22;10431;50.228;9.112;2023-07-31T15:12:30;22.00;99.90
20546;DHT22;10431;50.228;9.112;2023-07-31T15:14:56;22.00;99.90
20546;DHT22;10431;50.228;9.112;2023-07-31T15:17:23;22.00;99.90
20546;DHT22;10431;50.228;9.112;2023-07-31T15:19:50;22.00;99.90
20546;DHT22;10431;50.228;9.112;2023-07-31T15:22:16;22.00;99.90
20546;DHT22;10431;50.228;9.112;2023-07-31T15:24:42;22.00;99.90
20546;DHT22;10431;50.228;9.112;2023-07-31T15:27:08;22.00;99.90
20546;DHT22;10431;50.228;9.112;2023-07-31T15:29:35;22.00;99.90
20546;DHT22;10431;50.228;9.112;2023-07-31T15:32:04;22.00;99.90
20546;DHT22;10431;50.228;9.112;2023-07-31T15:34:31;22.00;99.90
20546;DHT22;10431;50.228;9.112;2023-07-31T15:36:57;22.00;99.90
20546;DHT22;10431;50.228;9.112;2023-07-31T15:39:23;22.00;99.90
20546;DHT22;10431;50.228;9.112;2023-07-31T15:41:50;22.00;99.90
20546;DHT22;10431;50.228;9.112;2023-07-31T15:44:16;22.00;99.90
20546;DHT22;10431;50.228;9.112;2023-07-31T15:46:42;22.00;99.90